sensor_id;sensor_type;location;lat;lon;timestamp;P1;durP1;ratioP1;P2;durP2;ratioP2
76236;SDS011;65038;53.200;6.530;2023-06-14T00:00:39;5.20;;;1.77;;
76236;SDS011;65038;53.200;6.530;2023-06-14T00:03:08;6.57;;;2.10;;
76236;SDS011;65038;53.200;6.530;2023-06-14T00:05:42;5.82;;;1.70;;
76236;SDS011;65038;53.200;6.530;2023-06-14T00:08:09;9.63;;;1.95;;
76236;SDS011;65038;53.200;6.530;2023-06-14T00:10:35;4.93;;;1.80;;
76236;SDS011;65038;53.200;6.530;2023-06-14T00:13:02;7.43;;;2.08;;
76236;SDS011;65038;53.200;6.530;2023-06-14T00:15:35;7.85;;;1.90;;
76236;SDS011;65038;53.200;6.530;2023-06-14T00:18:01;4.45;;;1.80;;
76236;SDS011;65038;53.200;6.530;2023-06-14T00:20:28;4.75;;;1.70;;
76236;SDS011;65038;53.200;6.530;2023-06-14T00:22:54;4.95;;;1.95;;
76236;SDS011;65038;53.200;6.530;2023-06-14T00:25:24;4.05;;;1.75;;
76236;SDS011;65038;53.200;6.530;2023-06-14T00:27:53;3.50;;;1.88;;
76236;SDS011;65038;53.200;6.530;2023-06-14T00:30:19;4.47;;;1.80;;
76236;SDS011;65038;53.200;6.530;2023-06-14T00:32:46;5.00;;;1.80;;
76236;SDS011;65038;53.200;6.530;2023-06-14T00:35:12;5.38;;;1.75;;
76236;SDS011;65038;53.200;6.530;2023-06-14T00:37:38;4.75;;;1.75;;
76236;SDS011;65038;53.200;6.530;2023-06-14T00:40:04;4.78;;;1.85;;
76236;SDS011;65038;53.200;6.530;2023-06-14T00:42:31;6.22;;;1.98;;
76236;SDS011;65038;53.200;6.530;2023-06-14T00:44:57;5.25;;;1.90;;
76236;SDS011;65038;53.200;6.530;2023-06-14T00:47:23;4.15;;;1.70;;
76236;SDS011;65038;53.200;6.530;2023-06-14T00:49:50;4.70;;;1.63;;
76236;SDS011;65038;53.200;6.530;2023-06-14T00:52:16;5.70;;;1.70;;
76236;SDS011;65038;53.200;6.530;2023-06-14T00:54:42;7.65;;;2.00;;
76236;SDS011;65038;53.200;6.530;2023-06-14T00:57:09;4.35;;;1.67;;
76236;SDS011;65038;53.200;6.530;2023-06-14T00:59:46;4.05;;;1.65;;
76236;SDS011;65038;53.200;6.530;2023-06-14T01:02:13;5.32;;;1.77;;
76236;SDS011;65038;53.200;6.530;2023-06-14T01:04:43;5.43;;;1.90;;
76236;SDS011;65038;53.200;6.530;2023-06-14T01:12:32;3.90;;;1.63;;
76236;SDS011;65038;53.200;6.530;2023-06-14T01:15:00;6.53;;;1.80;;
76236;SDS011;65038;53.200;6.530;2023-06-14T01:17:27;3.78;;;1.50;;
76236;SDS011;65038;53.200;6.530;2023-06-14T01:19:56;6.57;;;1.80;;
76236;SDS011;65038;53.200;6.530;2023-06-14T01:22:26;7.07;;;1.70;;
76236;SDS011;65038;53.200;6.530;2023-06-14T01:24:52;3.28;;;1.60;;
76236;SDS011;65038;53.200;6.530;2023-06-14T01:27:21;5.65;;;1.63;;
76236;SDS011;65038;53.200;6.530;2023-06-14T01:29:49;4.20;;;1.60;;
76236;SDS011;65038;53.200;6.530;2023-06-14T01:32:16;6.55;;;1.80;;
76236;SDS011;65038;53.200;6.530;2023-06-14T01:34:43;5.07;;;1.88;;
76236;SDS011;65038;53.200;6.530;2023-06-14T01:37:09;5.45;;;1.60;;
76236;SDS011;65038;53.200;6.530;2023-06-14T01:39:36;5.50;;;1.63;;
76236;SDS011;65038;53.200;6.530;2023-06-14T01:42:02;8.10;;;1.63;;
76236;SDS011;65038;53.200;6.530;2023-06-14T01:44:29;5.88;;;1.83;;
76236;SDS011;65038;53.200;6.530;2023-06-14T01:46:56;3.60;;;1.60;;
76236;SDS011;65038;53.200;6.530;2023-06-14T01:49:22;4.53;;;1.60;;
76236;SDS011;65038;53.200;6.530;2023-06-14T01:51:48;4.05;;;1.70;;
76236;SDS011;65038;53.200;6.530;2023-06-14T01:54:14;3.97;;;1.60;;
76236;SDS011;65038;53.200;6.530;2023-06-14T01:56:40;3.40;;;1.67;;
76236;SDS011;65038;53.200;6.530;2023-06-14T01:59:06;5.82;;;2.22;;
76236;SDS011;65038;53.200;6.530;2023-06-14T02:01:33;3.35;;;1.60;;
76236;SDS011;65038;53.200;6.530;2023-06-14T02:03:59;3.50;;;1.42;;
76236;SDS011;65038;53.200;6.530;2023-06-14T02:06:26;3.97;;;1.75;;
76236;SDS011;65038;53.200;6.530;2023-06-14T02:08:53;4.75;;;1.85;;
76236;SDS011;65038;53.200;6.530;2023-06-14T02:11:19;3.65;;;1.73;;
76236;SDS011;65038;53.200;6.530;2023-06-14T02:13:45;6.22;;;1.88;;
76236;SDS011;65038;53.200;6.530;2023-06-14T02:16:11;5.38;;;1.80;;
76236;SDS011;65038;53.200;6.530;2023-06-14T02:18:37;4.25;;;1.77;;
76236;SDS011;65038;53.200;6.530;2023-06-14T02:21:03;5.10;;;1.92;;
76236;SDS011;65038;53.200;6.530;2023-06-14T02:23:29;7.13;;;2.00;;
76236;SDS011;65038;53.200;6.530;2023-06-14T02:25:57;5.15;;;2.00;;
76236;SDS011;65038;53.200;6.530;2023-06-14T02:28:23;5.88;;;1.90;;
76236;SDS011;65038;53.200;6.530;2023-06-14T02:30:49;4.13;;;1.83;;
76236;SDS011;65038;53.200;6.530;2023-06-14T02:33:15;5.40;;;1.95;;
76236;SDS011;65038;53.200;6.530;2023-06-14T02:35:42;6.72;;;2.05;;
76236;SDS011;65038;53.200;6.530;2023-06-14T02:38:08;5.13;;;1.80;;
76236;SDS011;65038;53.200;6.530;2023-06-14T02:40:34;4.53;;;2.22;;
76236;SDS011;65038;53.200;6.530;2023-06-14T02:43:00;6.88;;;2.08;;
76236;SDS011;65038;53.200;6.530;2023-06-14T02:45:27;6.78;;;1.92;;
76236;SDS011;65038;53.200;6.530;2023-06-14T02:47:53;4.65;;;1.98;;
76236;SDS011;65038;53.200;6.530;2023-06-14T02:50:20;6.00;;;2.13;;
76236;SDS011;65038;53.200;6.530;2023-06-14T02:52:46;7.05;;;1.90;;
76236;SDS011;65038;53.200;6.530;2023-06-14T02:55:12;5.25;;;1.83;;
76236;SDS011;65038;53.200;6.530;2023-06-14T02:57:38;7.13;;;2.15;;
76236;SDS011;65038;53.200;6.530;2023-06-14T03:00:05;6.43;;;2.10;;
76236;SDS011;65038;53.200;6.530;2023-06-14T03:02:34;6.18;;;2.03;;
76236;SDS011;65038;53.200;6.530;2023-06-14T03:05:00;6.43;;;2.17;;
76236;SDS011;65038;53.200;6.530;2023-06-14T03:07:28;4.22;;;2.00;;
76236;SDS011;65038;53.200;6.530;2023-06-14T03:09:54;5.13;;;2.20;;
76236;SDS011;65038;53.200;6.530;2023-06-14T03:12:20;5.00;;;2.30;;
76236;SDS011;65038;53.200;6.530;2023-06-14T03:14:48;7.53;;;2.20;;
76236;SDS011;65038;53.200;6.530;2023-06-14T03:17:15;5.18;;;2.28;;
76236;SDS011;65038;53.200;6.530;2023-06-14T03:19:42;5.28;;;2.00;;
76236;SDS011;65038;53.200;6.530;2023-06-14T03:22:08;7.63;;;2.20;;
76236;SDS011;65038;53.200;6.530;2023-06-14T03:24:36;5.05;;;2.22;;
76236;SDS011;65038;53.200;6.530;2023-06-14T03:27:02;6.63;;;2.25;;
76236;SDS011;65038;53.200;6.530;2023-06-14T03:29:29;7.55;;;2.40;;
76236;SDS011;65038;53.200;6.530;2023-06-14T03:32:04;8.18;;;2.50;;
76236;SDS011;65038;53.200;6.530;2023-06-14T03:34:30;5.40;;;2.30;;
76236;SDS011;65038;53.200;6.530;2023-06-14T03:36:56;5.97;;;2.22;;
76236;SDS011;65038;53.200;6.530;2023-06-14T03:39:22;6.30;;;2.10;;
76236;SDS011;65038;53.200;6.530;2023-06-14T03:41:48;5.47;;;2.35;;
76236;SDS011;65038;53.200;6.530;2023-06-14T03:44:15;5.35;;;2.17;;
76236;SDS011;65038;53.200;6.530;2023-06-14T03:46:42;4.35;;;2.05;;
76236;SDS011;65038;53.200;6.530;2023-06-14T03:49:08;7.00;;;2.10;;
76236;SDS011;65038;53.200;6.530;2023-06-14T03:51:35;7.35;;;2.35;;
76236;SDS011;65038;53.200;6.530;2023-06-14T03:54:01;6.78;;;2.28;;
76236;SDS011;65038;53.200;6.530;2023-06-14T03:56:27;5.25;;;2.08;;
76236;SDS011;65038;53.200;6.530;2023-06-14T03:58:53;4.60;;;2.10;;
76236;SDS011;65038;53.200;6.530;2023-06-14T04:01:20;5.72;;;2.40;;
76236;SDS011;65038;53.200;6.530;2023-06-14T04:03:46;4.78;;;2.05;;
76236;SDS011;65038;53.200;6.530;2023-06-14T04:06:12;5.13;;;2.40;;
76236;SDS011;65038;53.200;6.530;2023-06-14T04:08:44;7.43;;;2.25;;
76236;SDS011;65038;53.200;6.530;2023-06-14T04:11:11;4.10;;;2.15;;
76236;SDS011;65038;53.200;6.530;2023-06-14T04:13:37;7.10;;;2.50;;
76236;SDS011;65038;53.200;6.530;2023-06-14T04:16:04;6.00;;;2.00;;
76236;SDS011;65038;53.200;6.530;2023-06-14T04:18:30;5.53;;;2.40;;
76236;SDS011;65038;53.200;6.530;2023-06-14T04:20:56;4.65;;;2.30;;
76236;SDS011;65038;53.200;6.530;2023-06-14T04:23:22;5.07;;;2.60;;
76236;SDS011;65038;53.200;6.530;2023-06-14T04:25:48;6.90;;;2.63;;
76236;SDS011;65038;53.200;6.530;2023-06-14T04:28:14;6.97;;;2.75;;
76236;SDS011;65038;53.200;6.530;2023-06-14T04:30:42;9.60;;;2.70;;
76236;SDS011;65038;53.200;6.530;2023-06-14T04:33:09;5.93;;;2.70;;
76236;SDS011;65038;53.200;6.530;2023-06-14T04:35:35;5.82;;;2.67;;
76236;SDS011;65038;53.200;6.530;2023-06-14T04:38:02;6.00;;;2.42;;
76236;SDS011;65038;53.200;6.530;2023-06-14T04:40:34;5.22;;;2.55;;
76236;SDS011;65038;53.200;6.530;2023-06-14T04:43:11;11.57;;;2.78;;
76236;SDS011;65038;53.200;6.530;2023-06-14T04:45:37;5.68;;;2.50;;
76236;SDS011;65038;53.200;6.530;2023-06-14T04:48:04;7.25;;;2.45;;
76236;SDS011;65038;53.200;6.530;2023-06-14T04:50:31;6.45;;;2.60;;
76236;SDS011;65038;53.200;6.530;2023-06-14T04:52:58;5.50;;;2.58;;
76236;SDS011;65038;53.200;6.530;2023-06-14T04:55:24;6.18;;;2.67;;
76236;SDS011;65038;53.200;6.530;2023-06-14T04:57:51;7.05;;;2.70;;
76236;SDS011;65038;53.200;6.530;2023-06-14T05:00:19;8.32;;;2.63;;
76236;SDS011;65038;53.200;6.530;2023-06-14T05:02:45;5.50;;;2.50;;
76236;SDS011;65038;53.200;6.530;2023-06-14T05:05:12;5.32;;;2.60;;
76236;SDS011;65038;53.200;6.530;2023-06-14T05:07:38;6.50;;;2.80;;
76236;SDS011;65038;53.200;6.530;2023-06-14T05:10:04;8.10;;;3.20;;
76236;SDS011;65038;53.200;6.530;2023-06-14T05:12:30;8.32;;;3.00;;
76236;SDS011;65038;53.200;6.530;2023-06-14T05:14:56;9.90;;;2.95;;
76236;SDS011;65038;53.200;6.530;2023-06-14T05:17:23;7.63;;;2.97;;
76236;SDS011;65038;53.200;6.530;2023-06-14T05:19:49;7.03;;;3.15;;
76236;SDS011;65038;53.200;6.530;2023-06-14T05:22:16;11.38;;;3.40;;
76236;SDS011;65038;53.200;6.530;2023-06-14T05:24:42;7.38;;;3.38;;
76236;SDS011;65038;53.200;6.530;2023-06-14T05:27:08;8.02;;;3.55;;
76236;SDS011;65038;53.200;6.530;2023-06-14T05:29:34;7.50;;;3.83;;
76236;SDS011;65038;53.200;6.530;2023-06-14T05:32:01;9.80;;;3.80;;
76236;SDS011;65038;53.200;6.530;2023-06-14T05:34:27;8.52;;;3.63;;
76236;SDS011;65038;53.200;6.530;2023-06-14T05:36:53;7.90;;;4.18;;
76236;SDS011;65038;53.200;6.530;2023-06-14T05:39:19;8.98;;;4.20;;
76236;SDS011;65038;53.200;6.530;2023-06-14T05:41:45;7.00;;;3.88;;
76236;SDS011;65038;53.200;6.530;2023-06-14T05:44:11;8.63;;;4.15;;
76236;SDS011;65038;53.200;6.530;2023-06-14T05:46:37;9.38;;;4.55;;
76236;SDS011;65038;53.200;6.530;2023-06-14T05:49:05;9.35;;;4.20;;
76236;SDS011;65038;53.200;6.530;2023-06-14T05:51:31;11.20;;;4.40;;
76236;SDS011;65038;53.200;6.530;2023-06-14T05:53:57;7.63;;;4.22;;
76236;SDS011;65038;53.200;6.530;2023-06-14T05:56:23;10.82;;;4.45;;
76236;SDS011;65038;53.200;6.530;2023-06-14T05:58:49;8.55;;;3.80;;
76236;SDS011;65038;53.200;6.530;2023-06-14T06:01:15;7.43;;;3.83;;
76236;SDS011;65038;53.200;6.530;2023-06-14T06:03:41;7.75;;;4.03;;
76236;SDS011;65038;53.200;6.530;2023-06-14T06:06:10;6.95;;;3.67;;
76236;SDS011;65038;53.200;6.530;2023-06-14T06:08:36;6.57;;;3.80;;
76236;SDS011;65038;53.200;6.530;2023-06-14T06:11:02;6.68;;;3.67;;
76236;SDS011;65038;53.200;6.530;2023-06-14T06:13:28;7.68;;;3.33;;
76236;SDS011;65038;53.200;6.530;2023-06-14T06:15:54;7.15;;;3.53;;
76236;SDS011;65038;53.200;6.530;2023-06-14T06:18:21;7.85;;;3.40;;
76236;SDS011;65038;53.200;6.530;2023-06-14T06:20:47;7.10;;;3.25;;
76236;SDS011;65038;53.200;6.530;2023-06-14T06:23:13;6.22;;;3.60;;
76236;SDS011;65038;53.200;6.530;2023-06-14T06:25:39;9.60;;;3.10;;
76236;SDS011;65038;53.200;6.530;2023-06-14T06:28:06;12.75;;;3.25;;
76236;SDS011;65038;53.200;6.530;2023-06-14T06:30:32;8.57;;;3.08;;
76236;SDS011;65038;53.200;6.530;2023-06-14T06:32:58;6.35;;;3.08;;
76236;SDS011;65038;53.200;6.530;2023-06-14T06:35:24;6.60;;;3.50;;
76236;SDS011;65038;53.200;6.530;2023-06-14T06:37:50;8.48;;;2.90;;
76236;SDS011;65038;53.200;6.530;2023-06-14T06:40:17;8.48;;;3.00;;
76236;SDS011;65038;53.200;6.530;2023-06-14T06:42:43;7.47;;;3.00;;
76236;SDS011;65038;53.200;6.530;2023-06-14T06:45:09;7.63;;;2.78;;
76236;SDS011;65038;53.200;6.530;2023-06-14T06:47:35;7.50;;;2.67;;
76236;SDS011;65038;53.200;6.530;2023-06-14T06:50:01;7.35;;;2.90;;
76236;SDS011;65038;53.200;6.530;2023-06-14T06:52:27;5.55;;;2.80;;
76236;SDS011;65038;53.200;6.530;2023-06-14T06:54:54;6.63;;;2.55;;
76236;SDS011;65038;53.200;6.530;2023-06-14T06:57:21;6.07;;;2.58;;
76236;SDS011;65038;53.200;6.530;2023-06-14T06:59:50;7.10;;;2.80;;
76236;SDS011;65038;53.200;6.530;2023-06-14T07:02:16;6.05;;;2.65;;
76236;SDS011;65038;53.200;6.530;2023-06-14T07:04:42;7.15;;;2.45;;
76236;SDS011;65038;53.200;6.530;2023-06-14T07:07:08;6.00;;;2.38;;
76236;SDS011;65038;53.200;6.530;2023-06-14T07:09:37;8.18;;;2.80;;
76236;SDS011;65038;53.200;6.530;2023-06-14T07:12:03;6.72;;;2.60;;
76236;SDS011;65038;53.200;6.530;2023-06-14T07:14:29;9.60;;;3.17;;
76236;SDS011;65038;53.200;6.530;2023-06-14T07:16:55;5.47;;;2.40;;
76236;SDS011;65038;53.200;6.530;2023-06-14T07:19:21;6.50;;;2.28;;
76236;SDS011;65038;53.200;6.530;2023-06-14T07:21:47;5.47;;;2.28;;
76236;SDS011;65038;53.200;6.530;2023-06-14T07:24:13;4.95;;;2.47;;
76236;SDS011;65038;53.200;6.530;2023-06-14T07:26:40;6.22;;;2.38;;
76236;SDS011;65038;53.200;6.530;2023-06-14T07:29:06;6.07;;;2.17;;
76236;SDS011;65038;53.200;6.530;2023-06-14T07:31:32;6.30;;;2.42;;
76236;SDS011;65038;53.200;6.530;2023-06-14T07:33:58;4.80;;;2.35;;
76236;SDS011;65038;53.200;6.530;2023-06-14T07:36:24;5.70;;;2.45;;
76236;SDS011;65038;53.200;6.530;2023-06-14T07:38:50;5.68;;;2.13;;
76236;SDS011;65038;53.200;6.530;2023-06-14T07:41:16;6.45;;;2.40;;
76236;SDS011;65038;53.200;6.530;2023-06-14T07:43:42;4.30;;;2.20;;
76236;SDS011;65038;53.200;6.530;2023-06-14T07:46:08;7.75;;;2.30;;
76236;SDS011;65038;53.200;6.530;2023-06-14T07:48:34;6.18;;;2.20;;
76236;SDS011;65038;53.200;6.530;2023-06-14T07:51:01;6.85;;;2.30;;
76236;SDS011;65038;53.200;6.530;2023-06-14T07:53:27;5.05;;;2.42;;
76236;SDS011;65038;53.200;6.530;2023-06-14T07:55:53;7.20;;;2.40;;
76236;SDS011;65038;53.200;6.530;2023-06-14T07:58:19;5.53;;;2.30;;
76236;SDS011;65038;53.200;6.530;2023-06-14T08:00:45;5.47;;;2.30;;
76236;SDS011;65038;53.200;6.530;2023-06-14T08:03:12;4.40;;;2.20;;
76236;SDS011;65038;53.200;6.530;2023-06-14T08:05:38;7.18;;;2.60;;
76236;SDS011;65038;53.200;6.530;2023-06-14T08:08:04;5.30;;;2.60;;
76236;SDS011;65038;53.200;6.530;2023-06-14T08:10:30;6.95;;;2.47;;
76236;SDS011;65038;53.200;6.530;2023-06-14T08:12:56;8.27;;;2.65;;
76236;SDS011;65038;53.200;6.530;2023-06-14T08:15:22;7.22;;;2.30;;
76236;SDS011;65038;53.200;6.530;2023-06-14T08:17:48;4.90;;;2.10;;
76236;SDS011;65038;53.200;6.530;2023-06-14T08:20:15;6.05;;;2.00;;
76236;SDS011;65038;53.200;6.530;2023-06-14T08:22:41;5.40;;;2.17;;
76236;SDS011;65038;53.200;6.530;2023-06-14T08:25:08;5.90;;;2.10;;
76236;SDS011;65038;53.200;6.530;2023-06-14T08:27:34;5.20;;;1.88;;
76236;SDS011;65038;53.200;6.530;2023-06-14T08:30:00;6.93;;;2.10;;
76236;SDS011;65038;53.200;6.530;2023-06-14T08:32:27;4.38;;;2.25;;
76236;SDS011;65038;53.200;6.530;2023-06-14T08:34:53;6.38;;;2.33;;
76236;SDS011;65038;53.200;6.530;2023-06-14T08:37:19;5.55;;;2.20;;
76236;SDS011;65038;53.200;6.530;2023-06-14T08:39:45;5.88;;;2.17;;
76236;SDS011;65038;53.200;6.530;2023-06-14T08:42:11;4.20;;;2.20;;
76236;SDS011;65038;53.200;6.530;2023-06-14T08:44:38;4.90;;;2.20;;
76236;SDS011;65038;53.200;6.530;2023-06-14T08:47:04;7.35;;;2.00;;
76236;SDS011;65038;53.200;6.530;2023-06-14T08:49:31;4.78;;;2.08;;
76236;SDS011;65038;53.200;6.530;2023-06-14T08:51:58;5.25;;;2.00;;
76236;SDS011;65038;53.200;6.530;2023-06-14T08:54:28;5.65;;;2.15;;
76236;SDS011;65038;53.200;6.530;2023-06-14T08:57:00;4.78;;;2.00;;
76236;SDS011;65038;53.200;6.530;2023-06-14T08:59:26;4.13;;;1.92;;
76236;SDS011;65038;53.200;6.530;2023-06-14T09:01:53;6.90;;;2.30;;
76236;SDS011;65038;53.200;6.530;2023-06-14T09:04:25;7.78;;;2.00;;
76236;SDS011;65038;53.200;6.530;2023-06-14T09:06:54;6.60;;;1.88;;
76236;SDS011;65038;53.200;6.530;2023-06-14T09:09:20;5.53;;;2.15;;
76236;SDS011;65038;53.200;6.530;2023-06-14T09:11:48;5.47;;;2.03;;
76236;SDS011;65038;53.200;6.530;2023-06-14T09:14:15;4.13;;;1.88;;
76236;SDS011;65038;53.200;6.530;2023-06-14T09:16:41;5.63;;;2.10;;
76236;SDS011;65038;53.200;6.530;2023-06-14T09:19:07;7.13;;;2.40;;
76236;SDS011;65038;53.200;6.530;2023-06-14T09:21:36;5.85;;;2.20;;
76236;SDS011;65038;53.200;6.530;2023-06-14T09:24:03;7.93;;;2.17;;
76236;SDS011;65038;53.200;6.530;2023-06-14T09:26:35;3.70;;;2.17;;
76236;SDS011;65038;53.200;6.530;2023-06-14T09:29:04;5.87;;;2.23;;
76236;SDS011;65038;53.200;6.530;2023-06-14T09:31:31;6.20;;;2.13;;
76236;SDS011;65038;53.200;6.530;2023-06-14T09:33:58;4.53;;;2.05;;
76236;SDS011;65038;53.200;6.530;2023-06-14T09:36:24;10.18;;;2.30;;
76236;SDS011;65038;53.200;6.530;2023-06-14T09:38:54;5.32;;;1.90;;
76236;SDS011;65038;53.200;6.530;2023-06-14T09:41:30;4.00;;;2.03;;
76236;SDS011;65038;53.200;6.530;2023-06-14T09:43:57;7.22;;;2.30;;
76236;SDS011;65038;53.200;6.530;2023-06-14T09:46:25;7.20;;;2.13;;
76236;SDS011;65038;53.200;6.530;2023-06-14T09:48:52;5.70;;;1.95;;
76236;SDS011;65038;53.200;6.530;2023-06-14T09:51:18;4.30;;;1.95;;
76236;SDS011;65038;53.200;6.530;2023-06-14T09:53:46;5.95;;;1.98;;
76236;SDS011;65038;53.200;6.530;2023-06-14T09:56:12;6.13;;;2.08;;
76236;SDS011;65038;53.200;6.530;2023-06-14T09:58:39;4.53;;;2.17;;
76236;SDS011;65038;53.200;6.530;2023-06-14T10:01:05;4.57;;;2.28;;
76236;SDS011;65038;53.200;6.530;2023-06-14T10:03:33;6.10;;;2.30;;
76236;SDS011;65038;53.200;6.530;2023-06-14T10:06:00;5.35;;;2.00;;
76236;SDS011;65038;53.200;6.530;2023-06-14T10:08:29;4.18;;;2.03;;
76236;SDS011;65038;53.200;6.530;2023-06-14T10:10:58;4.45;;;2.25;;
76236;SDS011;65038;53.200;6.530;2023-06-14T10:13:25;5.38;;;2.10;;
76236;SDS011;65038;53.200;6.530;2023-06-14T10:15:58;6.13;;;2.10;;
76236;SDS011;65038;53.200;6.530;2023-06-14T10:21:02;3.80;;;2.00;;
76236;SDS011;65038;53.200;6.530;2023-06-14T10:23:32;6.07;;;1.90;;
76236;SDS011;65038;53.200;6.530;2023-06-14T10:26:01;7.13;;;1.95;;
76236;SDS011;65038;53.200;6.530;2023-06-14T10:28:27;6.47;;;2.10;;
76236;SDS011;65038;53.200;6.530;2023-06-14T10:31:02;4.68;;;2.15;;
76236;SDS011;65038;53.200;6.530;2023-06-14T10:33:32;4.30;;;2.42;;
76236;SDS011;65038;53.200;6.530;2023-06-14T10:38:33;6.03;;;2.33;;
76236;SDS011;65038;53.200;6.530;2023-06-14T10:41:00;4.30;;;1.90;;
76236;SDS011;65038;53.200;6.530;2023-06-14T10:43:27;6.55;;;1.80;;
76236;SDS011;65038;53.200;6.530;2023-06-14T10:48:57;5.95;;;2.10;;
76236;SDS011;65038;53.200;6.530;2023-06-14T10:51:24;6.60;;;2.08;;
76236;SDS011;65038;53.200;6.530;2023-06-14T10:53:51;5.10;;;2.05;;
76236;SDS011;65038;53.200;6.530;2023-06-14T10:56:24;4.90;;;2.03;;
76236;SDS011;65038;53.200;6.530;2023-06-14T10:58:52;5.20;;;1.98;;
76236;SDS011;65038;53.200;6.530;2023-06-14T11:01:19;5.15;;;2.15;;
76236;SDS011;65038;53.200;6.530;2023-06-14T11:03:52;3.92;;;1.92;;
76236;SDS011;65038;53.200;6.530;2023-06-14T11:06:19;6.40;;;2.13;;
76236;SDS011;65038;53.200;6.530;2023-06-14T11:11:49;5.90;;;2.20;;
76236;SDS011;65038;53.200;6.530;2023-06-14T11:14:17;4.93;;;2.00;;
76236;SDS011;65038;53.200;6.530;2023-06-14T11:16:47;5.28;;;2.00;;
76236;SDS011;65038;53.200;6.530;2023-06-14T11:19:13;6.43;;;2.03;;
76236;SDS011;65038;53.200;6.530;2023-06-14T11:21:39;7.85;;;2.00;;
76236;SDS011;65038;53.200;6.530;2023-06-14T11:24:09;5.70;;;1.90;;
76236;SDS011;65038;53.200;6.530;2023-06-14T11:26:37;4.20;;;2.00;;
76236;SDS011;65038;53.200;6.530;2023-06-14T11:29:03;7.28;;;2.17;;
76236;SDS011;65038;53.200;6.530;2023-06-14T11:31:29;4.72;;;1.90;;
76236;SDS011;65038;53.200;6.530;2023-06-14T11:33:56;4.18;;;1.80;;
76236;SDS011;65038;53.200;6.530;2023-06-14T11:36:22;5.55;;;1.90;;
76236;SDS011;65038;53.200;6.530;2023-06-14T11:38:49;3.75;;;1.67;;
76236;SDS011;65038;53.200;6.530;2023-06-14T11:41:15;2.90;;;1.50;;
76236;SDS011;65038;53.200;6.530;2023-06-14T11:43:41;4.03;;;1.73;;
76236;SDS011;65038;53.200;6.530;2023-06-14T11:46:13;7.30;;;1.80;;
76236;SDS011;65038;53.200;6.530;2023-06-14T11:48:47;4.65;;;1.70;;
76236;SDS011;65038;53.200;6.530;2023-06-14T11:51:13;4.97;;;1.60;;
76236;SDS011;65038;53.200;6.530;2023-06-14T11:53:39;6.28;;;1.75;;
76236;SDS011;65038;53.200;6.530;2023-06-14T11:56:05;5.18;;;1.77;;
76236;SDS011;65038;53.200;6.530;2023-06-14T11:58:31;3.40;;;1.60;;
76236;SDS011;65038;53.200;6.530;2023-06-14T12:00:57;3.60;;;1.48;;
76236;SDS011;65038;53.200;6.530;2023-06-14T12:03:23;5.18;;;1.70;;
76236;SDS011;65038;53.200;6.530;2023-06-14T12:05:50;7.50;;;1.90;;
76236;SDS011;65038;53.200;6.530;2023-06-14T12:08:16;3.50;;;1.70;;
76236;SDS011;65038;53.200;6.530;2023-06-14T12:10:43;5.55;;;1.77;;
76236;SDS011;65038;53.200;6.530;2023-06-14T12:13:09;4.97;;;1.63;;
76236;SDS011;65038;53.200;6.530;2023-06-14T12:15:36;4.47;;;1.60;;
76236;SDS011;65038;53.200;6.530;2023-06-14T12:18:05;4.82;;;1.80;;
76236;SDS011;65038;53.200;6.530;2023-06-14T12:20:32;3.25;;;1.60;;
76236;SDS011;65038;53.200;6.530;2023-06-14T12:22:59;4.80;;;1.50;;
76236;SDS011;65038;53.200;6.530;2023-06-14T12:25:30;6.05;;;1.70;;
76236;SDS011;65038;53.200;6.530;2023-06-14T12:28:00;3.92;;;1.50;;
76236;SDS011;65038;53.200;6.530;2023-06-14T12:30:29;6.05;;;1.60;;
76236;SDS011;65038;53.200;6.530;2023-06-14T12:32:55;5.18;;;1.48;;
76236;SDS011;65038;53.200;6.530;2023-06-14T12:35:21;3.70;;;1.60;;
76236;SDS011;65038;53.200;6.530;2023-06-14T12:37:47;3.45;;;1.60;;
76236;SDS011;65038;53.200;6.530;2023-06-14T12:40:13;5.00;;;1.40;;
76236;SDS011;65038;53.200;6.530;2023-06-14T12:42:39;4.43;;;1.90;;
76236;SDS011;65038;53.200;6.530;2023-06-14T12:45:06;7.25;;;1.90;;
76236;SDS011;65038;53.200;6.530;2023-06-14T12:47:32;4.32;;;1.88;;
76236;SDS011;65038;53.200;6.530;2023-06-14T12:49:58;6.85;;;2.00;;
76236;SDS011;65038;53.200;6.530;2023-06-14T12:52:24;4.10;;;1.52;;
76236;SDS011;65038;53.200;6.530;2023-06-14T12:54:50;5.20;;;1.60;;
76236;SDS011;65038;53.200;6.530;2023-06-14T12:57:16;8.00;;;2.20;;
76236;SDS011;65038;53.200;6.530;2023-06-14T12:59:42;6.07;;;2.40;;
76236;SDS011;65038;53.200;6.530;2023-06-14T13:02:16;4.93;;;1.65;;
76236;SDS011;65038;53.200;6.530;2023-06-14T13:04:42;4.30;;;1.77;;
76236;SDS011;65038;53.200;6.530;2023-06-14T13:07:08;4.95;;;1.70;;
76236;SDS011;65038;53.200;6.530;2023-06-14T13:09:35;7.38;;;3.58;;
76236;SDS011;65038;53.200;6.530;2023-06-14T13:12:01;4.18;;;1.80;;
76236;SDS011;65038;53.200;6.530;2023-06-14T13:14:28;4.45;;;1.70;;
76236;SDS011;65038;53.200;6.530;2023-06-14T13:16:54;8.23;;;1.70;;
76236;SDS011;65038;53.200;6.530;2023-06-14T13:19:20;4.90;;;1.70;;
76236;SDS011;65038;53.200;6.530;2023-06-14T13:21:46;4.47;;;1.70;;
76236;SDS011;65038;53.200;6.530;2023-06-14T13:24:12;3.53;;;1.55;;
76236;SDS011;65038;53.200;6.530;2023-06-14T13:26:38;5.93;;;1.90;;
76236;SDS011;65038;53.200;6.530;2023-06-14T13:29:04;5.38;;;1.80;;
76236;SDS011;65038;53.200;6.530;2023-06-14T13:31:30;5.95;;;1.85;;
76236;SDS011;65038;53.200;6.530;2023-06-14T13:33:57;4.35;;;1.67;;
76236;SDS011;65038;53.200;6.530;2023-06-14T13:36:23;4.15;;;1.80;;
76236;SDS011;65038;53.200;6.530;2023-06-14T13:38:49;3.80;;;1.88;;
76236;SDS011;65038;53.200;6.530;2023-06-14T13:41:16;3.53;;;1.58;;
76236;SDS011;65038;53.200;6.530;2023-06-14T13:43:42;3.80;;;1.75;;
76236;SDS011;65038;53.200;6.530;2023-06-14T13:46:08;3.53;;;1.80;;
76236;SDS011;65038;53.200;6.530;2023-06-14T13:48:34;4.88;;;1.60;;
76236;SDS011;65038;53.200;6.530;2023-06-14T13:51:00;4.47;;;1.70;;
76236;SDS011;65038;53.200;6.530;2023-06-14T13:53:28;4.60;;;1.88;;
76236;SDS011;65038;53.200;6.530;2023-06-14T13:55:55;4.93;;;1.80;;
76236;SDS011;65038;53.200;6.530;2023-06-14T13:58:21;4.90;;;1.70;;
76236;SDS011;65038;53.200;6.530;2023-06-14T14:00:48;10.45;;;1.92;;
76236;SDS011;65038;53.200;6.530;2023-06-14T14:03:14;6.38;;;1.70;;
76236;SDS011;65038;53.200;6.530;2023-06-14T14:05:40;5.10;;;1.80;;
76236;SDS011;65038;53.200;6.530;2023-06-14T14:08:06;3.75;;;1.77;;
76236;SDS011;65038;53.200;6.530;2023-06-14T14:10:32;4.78;;;2.00;;
76236;SDS011;65038;53.200;6.530;2023-06-14T14:12:58;3.53;;;1.80;;
76236;SDS011;65038;53.200;6.530;2023-06-14T14:15:24;5.50;;;1.98;;
76236;SDS011;65038;53.200;6.530;2023-06-14T14:17:50;4.95;;;1.85;;
76236;SDS011;65038;53.200;6.530;2023-06-14T14:20:18;3.50;;;1.90;;
76236;SDS011;65038;53.200;6.530;2023-06-14T14:22:44;4.15;;;1.67;;
76236;SDS011;65038;53.200;6.530;2023-06-14T14:25:10;4.65;;;1.90;;
76236;SDS011;65038;53.200;6.530;2023-06-14T14:27:37;3.47;;;1.80;;
76236;SDS011;65038;53.200;6.530;2023-06-14T14:30:06;3.45;;;1.90;;
76236;SDS011;65038;53.200;6.530;2023-06-14T14:32:32;4.53;;;1.73;;
76236;SDS011;65038;53.200;6.530;2023-06-14T14:34:58;3.97;;;1.85;;
76236;SDS011;65038;53.200;6.530;2023-06-14T14:37:24;5.18;;;1.90;;
76236;SDS011;65038;53.200;6.530;2023-06-14T14:39:50;4.38;;;2.05;;
76236;SDS011;65038;53.200;6.530;2023-06-14T14:42:16;3.42;;;1.83;;
76236;SDS011;65038;53.200;6.530;2023-06-14T14:44:43;4.53;;;1.80;;
76236;SDS011;65038;53.200;6.530;2023-06-14T14:47:09;4.90;;;2.17;;
76236;SDS011;65038;53.200;6.530;2023-06-14T14:49:35;4.13;;;1.88;;
76236;SDS011;65038;53.200;6.530;2023-06-14T14:52:01;3.67;;;1.90;;
76236;SDS011;65038;53.200;6.530;2023-06-14T14:54:27;4.88;;;2.00;;
76236;SDS011;65038;53.200;6.530;2023-06-14T14:56:54;4.40;;;1.90;;
76236;SDS011;65038;53.200;6.530;2023-06-14T14:59:20;6.15;;;2.08;;
76236;SDS011;65038;53.200;6.530;2023-06-14T15:01:49;5.22;;;1.90;;